| time (UTC) | temp F | wind direction | speed MPH | gust MPH | rain 1hr in | rain 24hr in | rain mn in | humidity % | barometer mb |
| 20260503215008 | 76 | 86 | 4.0 | 9.0 | 0.00 | 0.02 | 0.02 | 40 | 1011.6 |
| 20260503214516 | 76 | 61 | 3.0 | 9.0 | 0.00 | 0.02 | 0.02 | 41 | 1011.6 |
| 20260503214011 | 76 | 9 | 4.0 | 9.0 | 0.00 | 0.02 | 0.02 | 42 | 1011.7 |
| 20260503213511 | 75 | 24 | 4.0 | 11.0 | 0.00 | 0.02 | 0.02 | 42 | 1011.7 |
| 20260503213023 | 76 | 69 | 3.0 | 11.0 | 0.00 | 0.02 | 0.02 | 42 | 1011.8 |
| 20260503212507 | 76 | 20 | 4.0 | 8.0 | 0.00 | 0.02 | 0.02 | 42 | 1011.9 |
| 20260503212010 | 76 | 19 | 3.0 | 8.0 | 0.00 | 0.02 | 0.02 | 43 | 1011.9 |
| 20260503211529 | 76 | 46 | 3.0 | 8.0 | 0.00 | 0.02 | 0.02 | 42 | 1011.9 |
| 20260503211007 | 75 | 38 | 3.0 | 9.0 | 0.00 | 0.02 | 0.02 | 43 | 1012.0 |
| 20260503210508 | 75 | 131 | 3.0 | 9.0 | 0.00 | 0.02 | 0.02 | 43 | 1012.0 |
| 20260503210020 | 75 | 5 | 6.0 | 8.0 | 0.00 | 0.02 | 0.02 | 42 | 1012.0 |
| 20260503205513 | 75 | 34 | 3.0 | 9.0 | 0.00 | 0.02 | 0.02 | 43 | 1012.1 |
| 20260503205007 | 75 | 22 | 4.0 | 9.0 | 0.00 | 0.02 | 0.02 | 44 | 1012.1 |
| 20260503204516 | 75 | 360 | 3.0 | 9.0 | 0.00 | 0.02 | 0.02 | 44 | 1012.1 |
| 20260503204009 | 75 | 348 | 6.0 | 9.0 | 0.00 | 0.02 | 0.02 | 43 | 1012.2 |
| 20260503203507 | 75 | 36 | 5.0 | 9.0 | 0.00 | 0.02 | 0.02 | 41 | 1012.2 |
| 20260503203022 | 75 | 15 | 3.0 | 8.0 | 0.00 | 0.02 | 0.02 | 43 | 1012.3 |
| 20260503202511 | 75 | 32 | 4.0 | 8.0 | 0.00 | 0.02 | 0.02 | 44 | 1012.3 |
| 20260503202012 | 74 | 351 | 3.0 | 9.0 | 0.00 | 0.02 | 0.02 | 46 | 1012.4 |
| 20260503201518 | 73 | 35 | 3.0 | 9.0 | 0.00 | 0.02 | 0.02 | 47 | 1012.4 |
| 20260503201006 | 73 | 46 | 3.0 | 9.0 | 0.00 | 0.02 | 0.02 | 48 | 1012.5 |
| 20260503200508 | 72 | 43 | 3.0 | 10.0 | 0.00 | 0.02 | 0.02 | 48 | 1012.7 |
| 20260503200020 | 72 | 352 | 5.0 | 10.0 | 0.00 | 0.02 | 0.02 | 48 | 1012.6 |
| 20260503195512 | 73 | 14 | 4.0 | 9.0 | 0.00 | 0.02 | 0.02 | 48 | 1012.7 |
| 20260503195009 | 73 | 58 | 4.0 | 9.0 | 0.00 | 0.02 | 0.02 | 48 | 1012.7 |
| 20260503194515 | 72 | 28 | 3.0 | 8.0 | 0.00 | 0.02 | 0.02 | 48 | 1012.8 |
| 20260503194008 | 72 | 26 | 5.0 | 9.0 | 0.00 | 0.02 | 0.02 | 50 | 1012.9 |
| 20260503193510 | 71 | 59 | 3.0 | 9.0 | 0.00 | 0.02 | 0.02 | 49 | 1012.9 |
| 20260503193034 | 71 | 61 | 3.0 | 10.0 | 0.00 | 0.02 | 0.02 | 51 | 1012.9 |
| 20260503192502 | 71 | 18 | 4.0 | 10.0 | 0.00 | 0.02 | 0.02 | 51 | 1012.9 |
| 20260503192002 | 71 | 346 | 4.0 | 9.0 | 0.00 | 0.02 | 0.02 | 51 | 1013.1 |
| 20260503191506 | 71 | 41 | 5.0 | 8.0 | 0.00 | 0.02 | 0.02 | 53 | 1012.9 |
| 20260503191006 | 70 | 18 | 4.0 | 8.0 | 0.00 | 0.02 | 0.02 | 51 | 1013.2 |
| 20260503190503 | 70 | 346 | 3.0 | 11.0 | 0.00 | 0.02 | 0.02 | 52 | 1013.2 |
| 20260503190018 | 70 | 23 | 4.0 | 11.0 | 0.00 | 0.02 | 0.02 | 52 | 1013.2 |
| 20260503185507 | 69 | 21 | 2.0 | 9.0 | 0.00 | 0.02 | 0.02 | 55 | 1013.2 |
| 20260503185006 | 69 | 339 | 4.0 | 9.0 | 0.00 | 0.02 | 0.02 | 54 | 1013.2 |
| 20260503184517 | 70 | 63 | 5.0 | 8.0 | 0.00 | 0.02 | 0.02 | 54 | 1013.4 |
| 20260503184006 | 69 | 54 | 3.0 | 9.0 | 0.00 | 0.02 | 0.02 | 52 | 1013.5 |
| 20260503183507 | 69 | 50 | 4.0 | 9.0 | 0.00 | 0.02 | 0.02 | 54 | 1013.5 |
| 20260503183022 | 69 | 24 | 2.0 | 8.0 | 0.00 | 0.02 | 0.02 | 55 | 1013.6 |
| 20260503182509 | 69 | 33 | 2.0 | 8.0 | 0.00 | 0.02 | 0.02 | 55 | 1013.6 |
| 20260503182008 | 69 | 15 | 3.0 | 6.0 | 0.00 | 0.02 | 0.02 | 55 | 1013.6 |
| 20260503181505 | 68 | 86 | 2.0 | 8.0 | 0.00 | 0.02 | 0.02 | 56 | 1013.7 |
| 20260503181003 | 68 | 78 | 2.0 | 8.0 | 0.00 | 0.02 | 0.02 | 57 | 1013.8 |
| 20260503180506 | 68 | 90 | 4.0 | 8.0 | 0.00 | 0.02 | 0.02 | 58 | 1013.8 |
| 20260503180008 | 68 | 13 | 4.0 | 9.0 | 0.00 | 0.02 | 0.02 | 58 | 1013.8 |
| 20260503175506 | 67 | 64 | 4.0 | 9.0 | 0.00 | 0.02 | 0.02 | 57 | 1013.8 |
| 20260503175005 | 67 | 82 | 4.0 | 9.0 | 0.00 | 0.02 | 0.02 | 55 | 1013.9 |
| 20260503174511 | 67 | 36 | 2.0 | 9.0 | 0.00 | 0.02 | 0.02 | 57 | 1013.9 |
| 20260503174006 | 67 | 103 | 3.0 | 9.0 | 0.00 | 0.02 | 0.02 | 57 | 1013.9 |
| 20260503173507 | 67 | 21 | 3.0 | 8.0 | 0.00 | 0.02 | 0.02 | 57 | 1013.8 |
| 20260503173021 | 67 | 347 | 3.0 | 8.0 | 0.00 | 0.02 | 0.02 | 1013.9 | |
| 20260503172506 | 67 | 36 | 4.0 | 8.0 | 0.00 | 0.02 | 0.02 | 57 | 1014.0 |
| 20260503172011 | 67 | 65 | 4.0 | 8.0 | 0.00 | 0.02 | 0.02 | 57 | 1014.0 |
| 20260503171522 | 67 | 84 | 4.0 | 8.0 | 0.00 | 0.02 | 0.02 | 57 | 1013.9 |
| 20260503171003 | 66 | 5 | 3.0 | 8.0 | 0.00 | 0.02 | 0.02 | 58 | 1014.0 |
| 20260503170504 | 66 | 23 | 3.0 | 9.0 | 0.00 | 0.02 | 0.02 | 60 | 1014.0 |
| 20260503151006 | 57 | 346 | 0.0 | 2.0 | 0.00 | 0.02 | 0.02 | 77 | 1014.2 |
| 20260503150507 | 57 | 263 | 0.0 | 2.0 | 0.00 | 0.02 | 0.02 | 76 | 1014.2 |
| 20260503131006 | 55 | 74 | 1.0 | 3.0 | 0.00 | 0.02 | 0.02 | 75 | 1013.7 |
| 20260503130507 | 55 | 91 | 0.0 | 2.0 | 0.00 | 0.02 | 0.02 | 75 | 1013.6 |
| 20260503110509 | 56 | 69 | 0.0 | 2.0 | 0.00 | 0.02 | 0.02 | 70 | 1013.9 |
| 20260503090506 | 61 | 352 | 0.0 | 3.0 | 0.00 | 0.02 | 0.02 | 59 | 1014.1 |
| 20260503081508 | 61 | 102 | 1.0 | 2.0 | 0.01 | 0.02 | 0.02 | 59 | 1014.3 |
| 20260503081006 | 62 | 84 | 0.0 | 3.0 | 0.02 | 0.02 | 0.02 | 57 | 1014.3 |
| 20260503080506 | 62 | 123 | 1.0 | 3.0 | 0.02 | 0.02 | 0.02 | 57 | 1014.3 |
| 20260503072509 | 59 | 63 | 0.0 | 2.0 | 0.01 | 0.01 | 0.01 | 66 | 1014.3 |
| 20260503072011 | 60 | 38 | 0.0 | 2.0 | 0.01 | 0.01 | 0.01 | 68 | 1014.3 |
| 20260503071535 | 60 | 60 | 0.0 | 2.0 | 0.01 | 0.01 | 0.01 | 65 | 1014.3 |
| 20260503071007 | 62 | 360 | 0.0 | 2.0 | 0.00 | 0.00 | 0.00 | 61 | 1014.2 |
| 20260503070503 | 63 | 35 | 1.0 | 2.0 | 0.00 | 0.00 | 0.00 | 58 | 1014.2 |
| 20260503055006 | 64 | 15 | 0.0 | 4.0 | 0.00 | 0.00 | 0.00 | 56 | 1014.1 |
| 20260503054526 | 64 | 9 | 0.0 | 2.0 | 0.00 | 0.00 | 0.00 | 56 | 1014.1 |
| 20260503054011 | 64 | 9 | 1.0 | 2.0 | 0.00 | 0.00 | 0.00 | 55 | 1014.1 |
| 20260503053506 | 64 | 40 | 0.0 | 2.0 | 0.00 | 0.00 | 0.00 | 56 | 1014.1 |
| 20260503053016 | 64 | 100 | 0.0 | 2.0 | 0.00 | 0.00 | 0.00 | 57 | 1014.1 |
| 20260503052508 | 65 | 84 | 1.0 | 3.0 | 0.00 | 0.00 | 0.00 | 56 | 1014.0 |
| 20260503052013 | 65 | 66 | 1.0 | 3.0 | 0.00 | 0.00 | 0.00 | 56 | 1013.9 |
| 20260503051524 | 65 | 107 | 1.0 | 3.0 | 0.00 | 0.00 | 0.00 | 56 | 1013.8 |
| 20260503051010 | 65 | 63 | 1.0 | 4.0 | 0.00 | 0.00 | 0.00 | 56 | 1013.9 |
| 20260503050507 | 65 | 13 | 1.0 | 5.0 | 0.00 | 0.00 | 0.00 | 56 | 1013.9 |
| 20260503050025 | 65 | 23 | 1.0 | 5.0 | 0.00 | 0.00 | 0.00 | 57 | 1013.7 |
| 20260503045514 | 64 | 49 | 1.0 | 2.0 | 0.00 | 0.00 | 0.00 | 58 | 1013.8 |
| 20260503045007 | 64 | 71 | 1.0 | 3.0 | 0.00 | 0.00 | 0.00 | 58 | 1013.8 |
| 20260503044513 | 64 | 43 | 1.0 | 3.0 | 0.00 | 0.00 | 0.00 | 59 | 1013.8 |
| 20260503044003 | 64 | 29 | 1.0 | 3.0 | 0.00 | 0.00 | 0.00 | 59 | 1013.7 |
| 20260503043507 | 64 | 93 | 1.0 | 3.0 | 0.00 | 0.00 | 0.00 | 59 | 1013.7 |
| 20260503043014 | 64 | 66 | 2.0 | 5.0 | 0.00 | 0.00 | 0.00 | 59 | 1013.7 |
| 20260503042508 | 64 | 107 | 2.0 | 5.0 | 0.00 | 0.00 | 0.00 | 59 | 1013.6 |
| 20260503042008 | 64 | 69 | 1.0 | 6.0 | 0.00 | 0.00 | 0.00 | 59 | 1013.6 |
| 20260503041518 | 64 | 88 | 3.0 | 6.0 | 0.00 | 0.00 | 0.00 | 59 | 1013.6 |
| 20260503041008 | 63 | 107 | 2.0 | 5.0 | 0.00 | 0.00 | 0.00 | 60 | 1013.6 |
| 20260503040516 | 63 | 21 | 2.0 | 9.0 | 0.00 | 0.00 | 0.00 | 60 | 1013.5 |
| 20260503040026 | 64 | 47 | 2.0 | 9.0 | 0.00 | 0.00 | 0.00 | 58 | 1013.5 |
| 20260503035511 | 64 | 50 | 3.0 | 8.0 | 0.00 | 0.00 | 0.00 | 58 | 1013.4 |
| 20260503035013 | 64 | 20 | 2.0 | 6.0 | 0.00 | 0.00 | 0.00 | 57 | 1013.4 |
| 20260503034526 | 64 | 65 | 3.0 | 6.0 | 0.00 | 0.00 | 0.00 | 58 | 1013.3 |
| 20260503034007 | 64 | 94 | 1.0 | 6.0 | 0.00 | 0.00 | 0.00 | 57 | 1013.2 |
| 20260503033504 | 64 | 28 | 2.0 | 7.0 | 0.00 | 0.00 | 0.00 | 57 | 1013.2 |
| 20260503033022 | 65 | 85 | 1.0 | 8.0 | 0.00 | 0.00 | 0.00 | 57 | 1013.1 |
| 20260503032509 | 65 | 54 | 4.0 | 8.0 | 0.00 | 0.00 | 0.00 | 56 | 1013.1 |
| 20260503032006 | 65 | 51 | 2.0 | 8.0 | 0.00 | 0.00 | 0.00 | 56 | 1013.1 |
| 20260503031520 | 65 | 89 | 3.0 | 8.0 | 0.00 | 0.00 | 0.00 | 56 | 1013.0 |
| 20260503031008 | 65 | 94 | 2.0 | 8.0 | 0.00 | 0.00 | 0.00 | 56 | 1013.0 |
| 20260503030510 | 66 | 54 | 2.0 | 7.0 | 0.00 | 0.00 | 0.00 | 56 | 1013.0 |
| 20260503030021 | 66 | 11 | 2.0 | 7.0 | 0.00 | 0.00 | 0.00 | 56 | 1012.9 |
| 20260503025510 | 66 | 75 | 3.0 | 9.0 | 0.00 | 0.00 | 0.00 | 55 | 1012.9 |
| 20260503025009 | 66 | 65 | 3.0 | 9.0 | 0.00 | 0.00 | 0.00 | 54 | 1012.9 |
| 20260503024523 | 67 | 40 | 2.0 | 6.0 | 0.00 | 0.00 | 0.00 | 54 | 1012.9 |
| 20260503024009 | 67 | 90 | 3.0 | 6.0 | 0.00 | 0.00 | 0.00 | 54 | 1012.9 |
| 20260503023510 | 67 | 27 | 3.0 | 8.0 | 0.00 | 0.00 | 0.00 | 54 | 1012.8 |
| 20260503023025 | 67 | 34 | 4.0 | 9.0 | 0.00 | 0.00 | 0.00 | 52 | 1012.8 |
| 20260503022507 | 68 | 26 | 4.0 | 9.0 | 0.00 | 0.00 | 0.00 | 52 | 1012.8 |
| 20260503022006 | 68 | 24 | 2.0 | 8.0 | 0.00 | 0.00 | 0.00 | 52 | 1012.7 |
| 20260503021516 | 68 | 99 | 2.0 | 8.0 | 0.00 | 0.00 | 0.00 | 52 | 1012.8 |
| 20260503021007 | 68 | 55 | 2.0 | 9.0 | 0.00 | 0.00 | 0.00 | 52 | 1012.8 |
| 20260503020507 | 69 | 57 | 4.0 | 11.0 | 0.00 | 0.00 | 0.00 | 50 | 1012.8 |
| 20260503020020 | 69 | 108 | 3.0 | 14.0 | 0.00 | 0.00 | 0.00 | 49 | 1012.9 |
| 20260503015508 | 69 | 48 | 8.0 | 14.0 | 0.00 | 0.00 | 0.00 | 47 | 1012.8 |
| 20260503015010 | 70 | 64 | 3.0 | 8.0 | 0.00 | 0.00 | 0.00 | 49 | 1012.8 |
| 20260503014525 | 70 | 352 | 1.0 | 8.0 | 0.00 | 0.00 | 0.00 | 49 | 1012.8 |
| 20260503014009 | 71 | 342 | 2.0 | 7.0 | 0.00 | 0.00 | 0.00 | 48 | 1012.8 |
| 20260503013511 | 71 | 299 | 3.0 | 8.0 | 0.00 | 0.00 | 0.00 | 49 | 1012.9 |
| 20260503013026 | 71 | 86 | 2.0 | 8.0 | 0.00 | 0.00 | 0.00 | 49 | 1012.8 |
| 20260503012506 | 72 | 51 | 4.0 | 8.0 | 0.00 | 0.00 | 0.00 | 47 | 1012.9 |
| 20260503012007 | 72 | 99 | 1.0 | 9.0 | 0.00 | 0.00 | 0.00 | 48 | 1012.9 |
| 20260503011514 | 72 | 360 | 2.0 | 9.0 | 0.00 | 0.00 | 0.00 | 47 | 1013.0 |
| 20260503011005 | 72 | 49 | 1.0 | 11.0 | 0.00 | 0.00 | 0.00 | 48 | 1012.9 |
| 20260503010505 | 72 | 53 | 1.0 | 11.0 | 0.00 | 0.00 | 0.00 | 1012.9 | |
| 20260503010019 | 71 | 45 | 5.0 | 11.0 | 0.00 | 0.00 | 0.00 | 48 | 1013.1 |
| 20260503005508 | 71 | 36 | 5.0 | 9.0 | 0.00 | 0.00 | 0.00 | 48 | 1013.1 |
| 20260503005012 | 71 | 341 | 2.0 | 9.0 | 0.00 | 0.00 | 0.00 | 48 | 1013.1 |
| 20260503004528 | 71 | 5 | 4.0 | 10.0 | 0.00 | 0.00 | 0.00 | 47 | 1013.2 |
| 20260503004011 | 72 | 352 | 4.0 | 10.0 | 0.00 | 0.00 | 0.00 | 47 | 1013.2 |
| 20260503003504 | 72 | 17 | 3.0 | 8.0 | 0.00 | 0.00 | 0.00 | 47 | 1013.2 |
| 20260503003020 | 72 | 348 | 2.0 | 8.0 | 0.00 | 0.00 | 0.00 | 49 | 1013.1 |
| 20260503002505 | 72 | 329 | 2.0 | 5.0 | 0.00 | 0.00 | 0.00 | 50 | 1013.1 |
| 20260503002007 | 72 | 267 | 1.0 | 8.0 | 0.00 | 0.00 | 0.00 | 49 | 1013.1 |
| 20260503001520 | 71 | 107 | 1.0 | 10.0 | 0.00 | 0.00 | 0.00 | 49 | 1013.2 |
| 20260503001005 | 71 | 5 | 2.0 | 10.0 | 0.00 | 0.00 | 0.00 | 51 | 1013.2 |
| 20260503000506 | 71 | 360 | 4.0 | 11.0 | 0.00 | 0.00 | 0.00 | 49 | 1013.3 |
| 20260503000020 | 71 | 352 | 6.0 | 12.0 | 0.00 | 0.00 | 0.00 | 49 | 1013.2 |
| 20260502235507 | 71 | 306 | 4.0 | 12.0 | 0.00 | 0.00 | 0.00 | 49 | 1013.4 |
| 20260502235007 | 71 | 352 | 6.0 | 12.0 | 0.00 | 0.00 | 0.00 | 48 | 1013.3 |
| 20260502234527 | 71 | 20 | 4.0 | 12.0 | 0.00 | 0.00 | 0.00 | 49 | 1013.3 |
| 20260502234008 | 71 | 32 | 5.0 | 9.0 | 0.00 | 0.00 | 0.00 | 48 | 1013.4 |
| 20260502233510 | 71 | 16 | 4.0 | 9.0 | 0.00 | 0.00 | 0.00 | 47 | 1013.6 |
| 20260502233027 | 72 | 352 | 4.0 | 12.0 | 0.00 | 0.00 | 0.00 | 47 | 1013.6 |
| 20260502232504 | 72 | 9 | 7.0 | 12.0 | 0.00 | 0.00 | 0.00 | 46 | 1013.7 |
| 20260502232005 | 72 | 336 | 4.0 | 8.0 | 0.00 | 0.00 | 0.00 | 47 | 1013.7 |
| 20260502231512 | 72 | 360 | 4.0 | 10.0 | 0.00 | 0.00 | 0.00 | 46 | 1013.7 |
| 20260502231008 | 72 | 20 | 4.0 | 11.0 | 0.00 | 0.00 | 0.00 | 46 | 1013.8 |
| 20260502230506 | 71 | 360 | 4.0 | 12.0 | 0.00 | 0.00 | 0.00 | 49 | 1013.8 |
| 20260502230018 | 71 | 33 | 4.0 | 12.0 | 0.00 | 0.00 | 0.00 | 47 | 1013.9 |
| 20260502225505 | 71 | 339 | 5.0 | 13.0 | 0.00 | 0.00 | 0.00 | 48 | 1014.0 |
| 20260502225009 | 70 | 26 | 3.0 | 13.0 | 0.00 | 0.00 | 0.00 | 50 | 1014.1 |
| 20260502224523 | 70 | 17 | 5.0 | 13.0 | 0.00 | 0.00 | 0.00 | 50 | 1014.2 |
| 20260502224007 | 70 | 19 | 5.0 | 14.0 | 0.00 | 0.00 | 0.00 | 50 | 1014.2 |
| 20260502223510 | 69 | 341 | 6.0 | 14.0 | 0.00 | 0.00 | 0.00 | 51 | 1014.2 |
| 20260502223024 | 69 | 345 | 5.0 | 14.0 | 0.00 | 0.00 | 0.00 | 51 | 1014.3 |
| 20260502222508 | 69 | 9 | 8.0 | 15.0 | 0.00 | 0.00 | 0.00 | 50 | 1014.4 |
| 20260502222004 | 69 | 343 | 7.0 | 15.0 | 0.00 | 0.00 | 0.00 | 50 | 1014.4 |
| 20260502221512 | 68 | 336 | 8.0 | 14.0 | 0.00 | 0.00 | 0.00 | 51 | 1014.5 |
| 20260502221005 | 69 | 321 | 6.0 | 13.0 | 0.00 | 0.00 | 0.00 | 51 | 1014.6 |
| 20260502220506 | 69 | 24 | 6.0 | 13.0 | 0.00 | 0.00 | 0.00 | 52 | 1014.6 |
| 20260502220014 | 68 | 37 | 4.0 | 11.0 | 0.00 | 0.00 | 0.00 | 1014.6 | |
| 20260502215510 | 68 | 352 | 6.0 | 12.0 | 0.00 | 0.00 | 0.00 | 1014.7 |